Latest Weather Observations for Cairns

IDQ60801

Issued at 12:22 am EST Friday 3 July 2020 (issued every 10 minutes, with the page automatically refreshed every 10 minutes)

About weather observations | Map of weather stations | Latest weather observations for QLD | Other Formats
Station Details ID: 031011 Name: CAIRNS AERO Lat: -16.87 Lon: 145.75 Height: 2.22 m
Data from the previous 72 hours. | See also: Recent months at Cairns
Date/Time
EST
Temp
°C
App
Temp
°C
Dew
Point
°C
Rel
Hum
%
Delta-T
°C
Wind Press
QNH
hPa
Press
MSL
hPa
Rain since
9am
mm
Dir  Spd
km/h
Gust
km/h
Spd
kts
Gust
kts
03/12:00am 20.1 19.6 17.7 86 1.5 SSE 17 24 9 13 1019.1 1019.1 2.8
 
Date/Time
EST
Temp
°C
App
Temp
°C
Dew
Point
°C
Rel
Hum
%
Delta-T
°C
Wind Press
QNH
hPa
Press
MSL
hPa
Rain since
9am
mm
Dir  Spd
km/h
Gust
km/h
Spd
kts
Gust
kts
02/11:30pm 20.0 20.6 17.8 87 1.4 SSE 11 17 6 9 1019.3 1019.3 2.8
02/11:03pm 19.6 20.7 18.1 91 0.9 SSE 9 15 5 8 1019.5 1019.5 2.8
02/11:00pm 19.5 21.0 18.0 91 0.9 SSE 7 13 4 7 1019.5 1019.5 2.8
02/10:43pm 19.8 20.9 17.9 89 1.2 SSE 9 15 5 8 1019.7 1019.7 2.4
02/10:30pm 20.2 20.5 17.8 86 1.5 SE 13 19 7 10 1019.6 1019.6 2.2
02/10:00pm 20.5 20.2 17.3 82 2.0 S 15 22 8 12 1019.5 1019.5 2.2
02/09:30pm 20.5 20.6 17.5 83 1.8 SSE 13 24 7 13 1019.5 1019.5 2.2
02/09:00pm 20.4 21.0 17.6 84 1.7 S 11 20 6 11 1019.3 1019.3 2.2
02/08:30pm 20.8 21.1 18.0 84 1.7 SSE 13 22 7 12 1019.2 1019.2 2.2
02/08:00pm 20.5 20.6 18.4 88 1.3 SSE 15 22 8 12 1018.8 1018.8 2.2
02/07:30pm 20.8 20.1 17.4 81 2.1 SSE 17 24 9 13 1018.4 1018.4 2.2
02/07:00pm 21.0 21.5 17.4 80 2.2 SSE 11 17 6 9 1018.0 1018.0 2.2
02/06:30pm 21.5 21.1 18.1 81 2.1 SSE 17 24 9 13 1017.9 1017.9 2.2
02/06:00pm 21.2 21.3 17.4 79 2.3 SSE 13 19 7 10 1017.5 1017.5 2.2
02/05:30pm 22.5 21.9 17.6 74 3.0 SSE 17 24 9 13 1017.5 1017.5 2.2
02/05:00pm 22.5 23.6 18.9 80 2.3 SSE 11 17 6 9 1017.3 1017.3 2.2
02/04:30pm 22.2 23.1 19.2 83 1.9 SSE 13 19 7 10 1017.1 1017.1 2.2
02/04:00pm 21.6 23.0 19.5 88 1.3 S 11 17 6 9 1017.0 1017.0 2.2
02/03:31pm 21.1 20.9 19.4 90 1.1 SSE 19 26 10 14 1016.9 1016.9 2.2
02/03:30pm 21.1 20.8 19.2 89 1.2 SSE 19 28 10 15 1016.9 1016.9 2.2
02/03:12pm 21.5 21.5 19.8 90 1.1 SE 19 24 10 13 1016.9 1016.9 2.2
02/03:07pm 21.7 21.3 19.3 86 1.5 SE 20 28 11 15 1016.9 1016.9 2.0
02/03:00pm 21.9 21.6 19.5 86 1.5 SSE 20 28 11 15 1016.8 1016.8 2.0
02/02:56pm 21.7 21.5 19.3 86 1.5 SSE 19 28 10 15 1016.8 1016.8 2.0
02/02:30pm 21.8 21.5 19.2 85 1.6 SSE 19 30 10 16 1016.8 1016.8 2.0
02/02:09pm 22.5 22.2 19.5 83 1.9 SSE 20 30 11 16 1016.8 1016.8 2.0
02/02:00pm 22.5 22.2 19.5 83 1.9 SSE 20 30 11 16 1016.8 1016.8 2.0
02/01:35pm 22.6 21.3 19.8 84 1.8 SSE 26 35 14 19 1017.1 1017.1 2.0
02/01:30pm 23.1 23.0 19.9 82 2.1 SSE 20 32 11 17 1017.0 1017.0 2.0
02/01:17pm 22.9 24.0 21.2 90 1.1 SSE 17 28 9 15 1017.1 1017.1 2.0
02/01:00pm 21.9 21.9 20.2 90 1.1 SE 20 30 11 16 1017.4 1017.4 2.0
02/12:55pm 22.0 22.5 20.1 89 1.2 SE 17 30 9 16 1017.6 1017.6 1.8
02/12:43pm 22.6 24.5 20.5 88 1.4 SE 11 15 6 8 1017.6 1017.6 1.2
02/12:36pm 22.2 23.6 20.3 89 1.2 ESE 13 19 7 10 1017.7 1017.7 1.2
02/12:30pm 22.0 22.8 19.9 88 1.3 E 15 22 8 12 1017.9 1017.9 1.2
02/12:19pm 22.4 23.3 20.1 87 1.5 SE 15 22 8 12 1017.9 1017.9 0.8
02/12:00pm 22.8 22.6 19.8 83 1.9 SSE 20 28 11 15 1017.8 1017.8 0.0
02/11:30am 23.6 23.7 19.1 76 2.9 SSE 17 28 9 15 1017.8 1017.8 0.0
02/11:00am 23.1 23.4 19.5 80 2.3 S 17 26 9 14 1018.3 1018.3 0.0
02/10:30am 23.9 23.3 19.8 78 2.6 SSE 22 32 12 17 1018.3 1018.3 0.0
02/10:00am 22.7 22.8 19.1 80 2.3 S 17 26 9 14 1018.5 1018.5 0.0
02/09:30am 21.9 21.8 18.7 82 2.0 S 17 26 9 14 1018.6 1018.6 0.0
02/09:00am 21.6 21.7 18.4 82 2.0 S 15 22 8 12 1018.5 1018.5 21.0
02/08:30am 20.7 19.9 18.1 85 1.6 S 19 26 10 14 1018.2 1018.2 21.0
02/08:00am 20.7 20.2 17.9 84 1.7 S 17 26 9 14 1017.7 1017.7 21.0
02/07:30am 20.5 20.3 17.5 83 1.8 S 15 22 8 12 1017.6 1017.6 21.0
02/07:00am 20.3 19.7 17.5 84 1.7 S 17 28 9 15 1017.4 1017.4 21.0
02/06:30am 19.6 19.6 18.1 91 0.9 SSE 15 24 8 13 1017.4 1017.4 21.0
02/06:00am 19.3 18.9 18.1 93 0.7 SSE 17 26 9 14 1017.2 1017.2 21.0
02/05:30am 19.4 19.1 18.2 93 0.7 SSE 17 24 9 13 1017.1 1017.1 21.0
02/05:00am 19.4 18.7 18.2 93 0.7 S 19 28 10 15 1016.8 1016.8 21.0
02/04:35am 19.5 18.9 18.5 94 0.6 S 19 35 10 19 1016.6 1016.6 21.0
02/04:30am 19.5 18.7 18.5 94 0.6 S 20 33 11 18 1016.7 1016.7 21.0
02/04:27am 19.5 18.7 18.5 94 0.6 S 20 30 11 16 1016.7 1016.7 21.0
02/04:00am 19.5 18.9 18.5 94 0.6 S 19 30 10 16 1016.6 1016.6 20.6
02/03:53am 19.7 19.2 18.7 94 0.6 S 19 28 10 15 1016.6 1016.6 20.6
02/03:31am 19.8 19.2 18.5 92 0.8 S 19 28 10 15 1016.4 1016.4 20.2
02/03:30am 19.8 19.2 18.5 92 0.8 S 19 28 10 15 1016.4 1016.4 20.2
02/03:00am 19.9 19.4 18.6 92 0.8 S 19 26 10 14 1016.4 1016.4 20.2
02/02:53am 19.9 19.4 18.7 93 0.7 S 19 26 10 14 1016.5 1016.5 20.2
02/02:47am 19.8 19.3 18.6 93 0.7 SSE 19 26 10 14 1016.6 1016.6 20.2
02/02:43am 19.8 19.6 18.6 93 0.7 SSE 17 26 9 14 1016.6 1016.6 20.2
02/02:33am 19.9 19.7 18.4 91 0.9 SSE 17 26 9 14 1016.6 1016.6 20.0
02/02:30am 20.0 19.3 18.3 90 1.1 SSE 19 28 10 15 1016.6 1016.6 20.0
02/02:00am 20.4 20.1 18.2 87 1.4 S 17 22 9 12 1016.6 1016.6 20.0
02/01:30am 20.1 19.3 18.4 90 1.1 S 20 30 11 16 1016.7 1016.7 20.0
02/01:00am 20.3 19.1 18.4 89 1.2 S 22 35 12 19 1016.7 1016.7 19.8
02/12:30am 20.0 18.8 18.5 91 0.9 S 22 33 12 18 1016.9 1016.9 19.8
02/12:00am 20.3 19.1 18.4 89 1.2 S 22 37 12 20 1016.9 1016.9 19.8
 
Date/Time
EST
Temp
°C
App
Temp
°C
Dew
Point
°C
Rel
Hum
%
Delta-T
°C
Wind Press
QNH
hPa
Press
MSL
hPa
Rain since
9am
mm
Dir  Spd
km/h
Gust
km/h
Spd
kts
Gust
kts
01/11:30pm 20.4 19.2 18.5 89 1.2 S 22 35 12 19 1017.0 1017.0 19.8
01/11:00pm 20.7 20.1 18.8 89 1.2 S 20 30 11 16 1017.3 1017.3 19.8
01/10:45pm 20.6 19.7 19.1 91 0.9 S 22 33 12 18 1017.4 1017.4 19.8
01/10:32pm 20.3 19.8 19.0 92 0.8 S 20 32 11 17 1017.5 1017.5 19.8
01/10:30pm 20.4 19.8 18.9 91 0.9 S 20 32 11 17 1017.4 1017.4 19.6
01/10:00pm 21.1 22.6 19.0 88 1.3 SSE 9 19 5 10 1017.5 1017.5 19.2
01/09:30pm 21.6 22.1 19.2 86 1.5 SSW 15 28 8 15 1017.1 1017.1 19.0
01/09:00pm 21.0 20.6 18.9 88 1.3 S 19 28 10 15 1017.3 1017.3 19.0
01/08:44pm 20.8 21.2 19.1 90 1.1 S 15 24 8 13 1017.2 1017.2 19.0
01/08:30pm 20.3 20.7 19.0 92 0.8 S 15 24 8 13 1017.3 1017.3 19.0
01/08:14pm 20.2 20.3 19.2 94 0.6 SSE 17 24 9 13 1017.2 1017.2 18.6
01/08:12pm 20.2 20.3 19.2 94 0.6 SSE 17 24 9 13 1017.2 1017.2 18.6
01/08:00pm 20.3 20.5 19.3 94 0.6 SSE 17 22 9 12 1017.1 1017.1 18.4
01/07:53pm 20.3 20.5 19.3 94 0.6 SSE 17 22 9 12 1017.1 1017.1 18.2
01/07:46pm 20.4 20.6 19.4 94 0.6 S 17 28 9 15 1016.9 1016.9 17.8
01/07:30pm 20.4 20.6 19.4 94 0.6 S 17 24 9 13 1016.5 1016.5 17.6
01/07:29pm 20.4 20.6 19.4 94 0.6 S 17 24 9 13 1016.5 1016.5 17.6
01/07:00pm 20.8 21.1 19.5 92 0.8 S 17 22 9 12 1015.9 1015.9 16.8
01/06:50pm 20.7 20.9 19.4 92 0.8 SSE 17 22 9 12 1015.8 1015.8 16.8
01/06:43pm 20.6 20.8 19.4 93 0.8 SSE 17 24 9 13 1015.7 1015.7 16.8
01/06:30pm 20.4 21.5 19.6 95 0.5 SSE 13 24 7 13 1015.8 1015.8 16.6
01/06:00pm 20.5 21.6 19.7 95 0.5 SSE 13 19 7 10 1015.4 1015.4 16.0
01/05:54pm 20.5 21.5 19.5 94 0.6 SSE 13 19 7 10 1015.4 1015.4 15.8
01/05:42pm 20.7 22.8 19.4 92 0.8 SSE 7 19 4 10 1015.1 1015.1 15.0
01/05:30pm 21.0 23.3 19.8 93 0.8 SSE 7 11 4 6 1015.0 1015.0 14.8
01/05:13pm 20.9 22.1 19.9 94 0.6 SE 13 17 7 9 1014.9 1014.9 14.8
01/05:10pm 20.8 21.7 20.0 95 0.5 SE 15 20 8 11 1014.9 1014.9 14.8
01/05:00pm 20.7 21.5 19.9 95 0.5 SE 15 20 8 11 1015.0 1015.0 14.8
01/04:30pm 21.0 22.0 20.3 96 0.4 SE 15 17 8 9 1014.7 1014.7 14.0
01/04:00pm 21.1 22.5 20.4 96 0.5 SSE 13 20 7 11 1014.4 1014.4 11.0
01/03:30pm 21.4 22.2 20.7 96 0.5 SE 17 22 9 12 1014.2 1014.2 8.0
01/03:00pm 21.5 22.6 20.5 94 0.6 S 15 22 8 12 1013.9 1013.9 4.0
01/02:42pm 21.7 22.4 20.5 93 0.8 SSE 17 20 9 11 1013.9 1013.9 3.4
01/02:31pm 21.9 22.6 20.5 92 0.9 S 17 26 9 14 1013.9 1013.9 2.8
01/02:30pm 21.7 22.3 20.3 92 0.9 S 17 26 9 14 1013.9 1013.9 2.8
01/02:19pm 21.9 22.5 20.2 90 1.1 S 17 28 9 15 1013.8 1013.8 2.4
01/02:00pm 21.7 22.3 20.2 91 1.0 SSE 17 28 9 15 1014.1 1014.1 2.4
01/01:30pm 21.6 21.8 20.2 92 0.9 SSE 19 24 10 13 1014.6 1014.6 2.4
01/01:00pm 22.2 21.7 20.7 91 1.0 SE 24 37 13 20 1014.7 1014.7 2.4
01/12:30pm 22.8 22.5 20.3 86 1.6 SE 22 28 12 15 1015.1 1015.1 2.4
01/12:00pm 22.8 23.4 21.1 90 1.1 SSE 19 24 10 13 1015.5 1015.5 2.4
01/11:33am 23.1 24.1 21.7 92 0.9 SSE 19 24 10 13 1015.6 1015.6 2.4
01/11:30am 22.9 23.9 21.7 93 0.8 SE 19 24 10 13 1015.6 1015.6 2.4
01/11:06am 22.7 23.3 21.0 90 1.1 SE 19 24 10 13 1015.8 1015.8 2.0
01/11:00am 23.2 24.7 21.3 89 1.2 SE 15 20 8 11 1015.8 1015.8 1.6
01/10:49am 23.1 23.6 21.2 89 1.2 SE 20 30 11 16 1015.7 1015.7 1.6
01/10:30am 22.9 24.3 21.0 89 1.2 SE 15 24 8 13 1015.8 1015.8 1.4
01/10:29am 23.1 24.6 21.2 89 1.2 SE 15 24 8 13 1015.8 1015.8 1.2
01/10:00am 23.4 24.8 21.1 87 1.5 SSE 15 26 8 14 1015.6 1015.6 1.0
01/09:31am 22.1 24.0 21.3 95 0.5 SE 13 17 7 9 1015.8 1015.8 1.0
01/09:30am 22.1 24.0 21.3 95 0.5 SE 13 17 7 9 1015.8 1015.8 1.0
01/09:03am 21.8 22.7 20.8 94 0.6 SSE 17 24 9 13 1015.8 1015.8 0.4
01/09:00am 21.8 23.0 20.6 93 0.8 SSE 15 24 8 13 1015.6 1015.6 2.6
01/08:57am 21.7 23.2 20.5 93 0.8 SSE 13 20 7 11 1015.6 1015.6 2.4
01/08:44am 21.8 23.0 20.6 93 0.8 SSE 15 24 8 13 1015.5 1015.5 1.4
01/08:43am 21.7 22.8 20.5 93 0.8 SSE 15 24 8 13 1015.5 1015.5 1.4
01/08:30am 21.6 22.4 20.6 94 0.6 SSE 17 24 9 13 1015.4 1015.4 1.4
01/08:26am 21.3 21.8 20.1 93 0.8 S 17 26 9 14 1015.4 1015.4 1.2
01/08:12am 21.2 21.6 19.8 92 0.9 S 17 26 9 14 1015.1 1015.1 0.6
01/08:00am 21.5 22.3 19.8 90 1.1 S 15 24 8 13 1014.9 1014.9 0.2
01/07:43am 21.2 21.5 19.7 91 1.0 S 17 24 9 13 1014.8 1014.8 0.2
01/07:33am 21.2 21.2 19.8 92 0.9 S 19 26 10 14 1014.6 1014.6 0.2
01/07:30am 21.0 21.0 19.8 93 0.8 S 19 26 10 14 1014.6 1014.6 0.2
01/07:00am 20.8 20.4 19.3 91 0.9 S 20 32 11 17 1014.5 1014.5 0.0
01/06:30am 20.8 20.6 19.3 91 0.9 S 19 32 10 17 1014.2 1014.2 0.0
01/06:00am 20.5 20.6 19.2 92 0.8 S 17 30 9 16 1014.0 1014.0 0.0
01/05:30am 20.4 20.0 18.9 91 0.9 S 19 35 10 19 1013.9 1013.9 0.0
01/05:29am 20.3 19.9 18.8 91 0.9 S 19 35 10 19 1013.9 1013.9 0.0
01/05:00am 20.3 19.9 18.8 91 0.9 S 19 28 10 15 1013.7 1013.7 0.0
01/04:30am 20.5 20.4 18.8 90 1.1 S 17 26 9 14 1013.7 1013.7 0.0
01/04:18am 20.3 19.8 18.6 90 1.1 S 19 26 10 14 1013.5 1013.5 0.0
01/04:00am 20.1 20.0 18.8 92 0.8 S 17 26 9 14 1013.5 1013.5 0.0
01/03:58am 20.1 20.0 18.8 92 0.8 S 17 26 9 14 1013.6 1013.6 0.0
01/03:35am 20.0 19.7 18.3 90 1.1 S 17 26 9 14 1013.8 1013.8 0.0
01/03:30am 20.2 19.3 18.3 89 1.2 S 20 35 11 19 1013.8 1013.8 0.0
01/03:29am 20.3 19.5 18.4 89 1.2 S 20 35 11 19 1013.7 1013.7 0.0
01/03:11am 20.5 19.7 18.1 86 1.5 S 19 28 10 15 1013.8 1013.8 0.0
01/03:00am 20.6 19.8 18.0 85 1.6 S 19 26 10 14 1013.7 1013.7 0.0
01/02:30am 20.6 20.6 18.0 85 1.6 S 15 22 8 12 1014.0 1014.0 0.0
01/02:00am 20.6 20.2 18.0 85 1.6 S 17 28 9 15 1014.3 1014.3 0.0
01/01:30am 20.3 19.8 17.9 86 1.5 S 17 32 9 17 1014.4 1014.4 0.0
01/01:00am 20.5 20.3 17.5 83 1.8 S 15 22 8 12 1015.0 1015.0 0.0
01/12:30am 20.6 20.7 17.4 82 2.0 SSE 13 22 7 12 1015.3 1015.3 0.0
01/12:00am 20.6 19.9 17.4 82 2.0 SSE 17 28 9 15 1015.5 1015.5 0.0
 
Date/Time
EST
Temp
°C
App
Temp
°C
Dew
Point
°C
Rel
Hum
%
Delta-T
°C
Wind Press
QNH
hPa
Press
MSL
hPa
Rain since
9am
mm
Dir  Spd
km/h
Gust
km/h
Spd
kts
Gust
kts
30/11:30pm 20.7 20.3 17.1 80 2.2 S 15 24 8 13 1015.6 1015.6 0.0
30/11:00pm 21.1 21.0 16.9 77 2.6 S 13 33 7 18 1015.8 1015.8 0.0
30/10:30pm 21.3 20.5 16.0 72 3.2 S 15 22 8 12 1016.1 1016.1 0.0
30/10:00pm 21.6 20.8 15.2 67 3.8 S 13 20 7 11 1016.1 1016.1 0.0
30/09:30pm 22.0 21.1 15.8 68 3.7 S 15 22 8 12 1016.3 1016.3 0.0
30/09:00pm 21.6 22.0 15.2 67 3.8 SSW 7 17 4 9 1016.4 1016.4 0.0
30/08:30pm 21.4 20.7 15.3 68 3.6 S 13 20 7 11 1016.4 1016.4 0.0
30/08:00pm 21.2 20.5 15.5 70 3.4 S 13 19 7 10 1016.2 1016.2 0.0
30/07:30pm 21.4 20.4 15.7 70 3.4 S 15 28 8 15 1016.0 1016.0 0.0
30/07:00pm 21.8 20.3 15.4 67 3.8 SSE 17 26 9 14 1015.6 1015.6 0.0
30/06:30pm 21.9 20.0 15.3 66 3.9 SSE 19 28 10 15 1015.3 1015.3 0.0
30/06:00pm 22.6 20.7 15.2 63 4.4 SSE 19 26 10 14 1014.9 1014.9 0.0
30/05:30pm 23.3 19.5 14.8 59 5.0 SE 28 37 15 20 1014.8 1014.8 0.0
30/05:00pm 24.6 21.6 14.7 54 5.9 SE 24 35 13 19 1014.5 1014.5 0.0
30/04:30pm 24.9 22.2 15.5 56 5.7 SE 24 32 13 17 1014.2 1014.2 0.0
30/04:00pm 25.2 22.5 15.5 55 5.9 SE 24 32 13 17 1014.0 1014.0 0.0
30/03:30pm 26.0 23.0 14.8 50 6.7 SE 24 35 13 19 1014.0 1014.0 0.0
30/03:00pm 26.3 22.8 13.4 45 7.6 SSE 24 35 13 19 1013.8 1013.8 0.0
30/02:30pm 26.3 24.3 16.5 54 6.0 SE 22 28 12 15 1014.1 1014.1 0.0
30/02:00pm 26.3 23.2 15.7 52 6.5 SE 26 46 14 25 1014.4 1014.4 0.0
30/01:30pm 26.2 23.7 16.2 54 6.1 SE 24 33 13 18 1014.8 1014.8 0.0
30/01:00pm 26.2 23.4 16.4 54 6.0 SE 26 35 14 19 1015.1 1015.1 0.0
30/12:30pm 25.9 23.3 15.9 54 6.1 SE 24 37 13 20 1015.7 1015.7 0.0
30/12:00pm 25.4 23.2 16.8 59 5.3 SE 24 32 13 17 1016.3 1016.3 0.0
30/11:30am 24.9 22.6 16.6 60 5.1 SSE 24 32 13 17 1017.0 1017.0 0.0
30/11:00am 24.4 21.5 17.1 63 4.5 SSE 28 37 15 20 1017.2 1017.2 0.0
30/10:30am 24.0 22.7 18.2 70 3.6 SSE 22 33 12 18 1017.7 1017.7 0.0
30/10:00am 23.1 22.2 17.8 72 3.3 SSE 19 28 10 15 1018.0 1018.0 0.0
30/09:30am 22.2 21.3 17.8 76 2.7 S 19 26 10 14 1017.9 1017.9 0.0
30/09:00am 21.6 21.6 18.2 81 2.1 SSE 15 20 8 11 1018.0 1018.0 -
30/08:30am 21.0 21.8 18.2 84 1.7 SSE 11 20 6 11 1017.8 1017.8 -
30/08:00am 19.9 20.6 18.0 89 1.2 SE 11 17 6 9 1017.6 1017.6 -
30/07:30am 20.0 20.6 17.6 86 1.5 SSE 11 19 6 10 1017.2 1017.2 -
30/07:00am 19.9 20.3 17.3 85 1.6 S 11 20 6 11 1016.9 1016.9 -
30/06:30am 19.7 20.2 17.5 87 1.3 SSE 11 19 6 10 1016.8 1016.8 -
30/06:00am 19.7 18.4 17.3 86 1.5 S 20 33 11 18 1016.3 1016.3 -
30/05:30am 19.5 18.9 17.5 88 1.2 S 17 28 9 15 1016.1 1016.1 -
30/05:00am 20.0 19.0 17.6 86 1.5 S 19 32 10 17 1016.0 1016.0 -
30/04:30am 20.4 20.6 17.6 84 1.7 S 13 22 7 12 1015.8 1015.8 -
30/04:00am 19.8 19.3 17.8 88 1.2 S 17 28 9 15 1016.0 1016.0 -
30/03:30am 19.6 21.0 17.7 89 1.2 SE 7 15 4 8 1016.0 1016.0 -
30/03:00am 20.4 21.8 17.4 83 1.8 SSW 6 15 3 8 1016.0 1016.0 -
30/12:30am 19.4 19.4 18.2 93 0.7 SSE 15 24 8 13 1017.5 1017.5 2.6
30/12:26am 19.5 19.1 18.0 91 0.9 SSE 17 24 9 13 1017.5 1017.5 2.6

Other formats

Comma delimited format used in spreadsheet applications
http://www.bom.gov.au/fwo/IDQ60801/IDQ60801.94287.axf

JavaScript Object Notation format (JSON) in row-major order
http://www.bom.gov.au/fwo/IDQ60801/IDQ60801.94287.json

Data quality

Most of these data are generated automatically and are frequently updated. Quality checks on data are not normally performed. It is possible for incorrect values to appear. Refer to information at About Latest Weather Observations and please check the disclaimer before using these data.